createdAt,value
2023-01-17T00:01:30.222Z,1.10
2023-01-17T00:04:21.767Z,1.37
2023-01-17T00:07:08.947Z,1.77
2023-01-17T00:09:56.925Z,1.40
2023-01-17T00:12:26.344Z,1.43
2023-01-17T00:14:55.385Z,1.27
2023-01-17T00:17:24.159Z,1.33
2023-01-17T00:20:10.084Z,1.23
2023-01-17T00:22:57.553Z,1.97
2023-01-17T00:25:46.454Z,1.43
2023-01-17T00:28:13.780Z,1.10
2023-01-17T00:30:41.115Z,1.40
2023-01-17T00:33:08.379Z,1.73
2023-01-17T00:35:35.661Z,1.30
2023-01-17T00:38:05.853Z,1.10
2023-01-17T00:40:33.231Z,1.20
2023-01-17T00:43:19.104Z,1.43
2023-01-17T00:46:05.400Z,1.40
2023-01-17T00:48:52.110Z,1.40
2023-01-17T00:51:38.310Z,1.47
2023-01-17T00:54:26.085Z,1.10
2023-01-17T00:57:12.600Z,1.67
2023-01-17T00:59:58.356Z,1.40
2023-01-17T01:02:45.077Z,1.30
2023-01-17T01:05:31.449Z,1.20
2023-01-17T01:08:17.668Z,1.20
2023-01-17T01:11:05.722Z,1.83
2023-01-17T01:13:52.343Z,1.50
2023-01-17T01:16:38.531Z,1.67
2023-01-17T01:19:25.081Z,1.43
2023-01-17T01:22:10.954Z,1.20
2023-01-17T01:24:56.700Z,1.70
2023-01-17T01:27:43.987Z,1.10
2023-01-17T01:30:30.443Z,1.30
2023-01-17T01:33:16.369Z,1.40
2023-01-17T01:35:44.801Z,2.43
2023-01-17T01:38:13.204Z,1.87
2023-01-17T01:40:48.666Z,1.97
2023-01-17T01:43:19.873Z,1.47
2023-01-17T01:45:50.446Z,1.20
2023-01-17T01:48:28.565Z,1.67
2023-01-17T01:50:57.598Z,1.53
2023-01-17T01:53:26.753Z,1.60
2023-01-17T01:55:55.207Z,2.13
2023-01-17T01:58:26.178Z,1.50
2023-01-17T02:00:54.604Z,1.90
2023-01-17T02:03:24.676Z,1.33
2023-01-17T02:05:53.475Z,1.20
2023-01-17T02:08:23.294Z,1.30
2023-01-17T02:10:52.062Z,1.40
2023-01-17T02:13:22.078Z,1.73
2023-01-17T02:15:58.900Z,1.23
2023-01-17T02:18:31.155Z,1.10
2023-01-17T02:21:06.293Z,1.37
2023-01-17T02:23:52.267Z,1.80
2023-01-17T02:26:44.776Z,1.50
2023-01-17T02:29:26.354Z,1.23
2023-01-17T02:31:57.943Z,1.53
2023-01-17T02:34:28.340Z,1.20
2023-01-17T02:36:58.282Z,1.70
2023-01-17T02:39:30.161Z,1.37
2023-01-17T02:42:02.784Z,1.83
2023-01-17T02:44:31.215Z,1.50
2023-01-17T02:47:01.027Z,1.30
2023-01-17T02:49:30.791Z,1.43
2023-01-17T02:52:15.404Z,1.60
2023-01-17T02:55:01.137Z,1.30
2023-01-17T02:57:37.720Z,2.20
2023-01-17T03:00:08.612Z,1.30
2023-01-17T03:02:42.574Z,1.03
2023-01-17T03:05:12.512Z,1.50
2023-01-17T03:07:42.944Z,1.60
2023-01-17T03:10:13.357Z,1.90
2023-01-17T03:12:42.287Z,2.03
2023-01-17T03:15:12.999Z,1.80
2023-01-17T03:17:44.645Z,1.10
2023-01-17T03:20:13.240Z,1.60
2023-01-17T03:22:41.636Z,1.50
2023-01-17T03:25:10.216Z,1.57
2023-01-17T03:27:38.764Z,1.30
2023-01-17T03:30:07.773Z,1.37
2023-01-17T03:32:36.238Z,1.30
2023-01-17T03:35:06.277Z,1.77
2023-01-17T03:37:34.631Z,1.50
2023-01-17T03:40:03.011Z,1.80
2023-01-17T03:42:31.399Z,1.23
2023-01-17T03:44:59.859Z,1.97
2023-01-17T03:47:28.271Z,1.60
2023-01-17T03:49:56.666Z,2.13
2023-01-17T03:52:26.425Z,1.30
2023-01-17T03:54:54.853Z,1.10
2023-01-17T03:57:23.291Z,1.53
2023-01-17T03:59:51.717Z,1.83
2023-01-17T04:02:20.328Z,2.93
2023-01-17T04:04:48.831Z,1.80
2023-01-17T04:07:17.182Z,1.73
2023-01-17T04:09:46.945Z,2.13
2023-01-17T04:12:15.351Z,1.30
2023-01-17T04:14:43.718Z,1.70
2023-01-17T04:17:12.617Z,1.80
2023-01-17T04:19:41.060Z,2.30
2023-01-17T04:22:09.564Z,1.10
2023-01-17T04:24:38.166Z,1.23
2023-01-17T04:27:08.186Z,1.40
2023-01-17T04:29:36.568Z,1.47
2023-01-17T04:32:05.070Z,2.07
2023-01-17T04:34:33.446Z,1.27
2023-01-17T04:37:01.802Z,1.77
2023-01-17T04:39:30.209Z,1.67
2023-01-17T04:41:58.604Z,1.20
2023-01-17T04:44:28.393Z,1.50
2023-01-17T04:46:56.843Z,2.53
2023-01-17T04:49:25.297Z,1.67
2023-01-17T04:51:53.678Z,2.60
2023-01-17T04:54:22.083Z,1.30
2023-01-17T04:56:50.523Z,1.77
2023-01-17T04:59:19.013Z,1.70
2023-01-17T05:01:49.711Z,1.60
2023-01-17T05:04:18.169Z,1.57
2023-01-17T05:06:46.551Z,1.30
2023-01-17T05:09:14.923Z,1.70
2023-01-17T05:11:43.300Z,2.17
2023-01-17T05:14:12.001Z,2.20
2023-01-17T05:16:40.381Z,1.57
2023-01-17T05:19:10.141Z,1.20
2023-01-17T05:21:38.560Z,1.53
2023-01-17T05:24:07.228Z,1.27
2023-01-17T05:26:35.612Z,1.57
2023-01-17T05:29:04.026Z,2.70
2023-01-17T05:31:32.380Z,1.70
2023-01-17T05:34:00.781Z,3.00
2023-01-17T05:36:30.653Z,2.53
2023-01-17T05:38:59.133Z,1.80
2023-01-17T05:41:27.606Z,1.70
2023-01-17T05:43:56.033Z,1.93
2023-01-17T05:46:24.469Z,1.73
2023-01-17T05:48:52.929Z,1.53
2023-01-17T05:51:21.352Z,2.90
2023-01-17T05:53:51.179Z,1.87
2023-01-17T05:56:19.576Z,2.00
2023-01-17T05:58:48.343Z,1.30
2023-01-17T06:01:17.740Z,3.13
2023-01-17T06:03:46.046Z,2.20
2023-01-17T06:06:14.383Z,1.67
2023-01-17T06:08:42.684Z,1.70
2023-01-17T06:11:12.358Z,2.90
2023-01-17T06:13:40.624Z,2.70
2023-01-17T06:16:09.348Z,1.40
2023-01-17T06:18:37.675Z,1.90
2023-01-17T06:21:06.069Z,1.40
2023-01-17T06:23:34.399Z,2.70
2023-01-17T06:26:03.971Z,1.63
2023-01-17T06:28:33.650Z,1.57
2023-01-17T06:31:06.768Z,1.63
2023-01-17T06:33:35.081Z,2.00
2023-01-17T06:36:03.446Z,1.33
2023-01-17T06:38:31.757Z,1.53
2023-01-17T06:41:00.633Z,1.63
2023-01-17T06:43:32.567Z,2.10
2023-01-17T06:46:02.341Z,2.20
2023-01-17T06:48:30.647Z,1.80
2023-01-17T06:50:59.158Z,1.60
2023-01-17T06:53:27.523Z,1.63
2023-01-17T06:55:57.604Z,1.60
2023-01-17T06:58:25.999Z,1.80
2023-01-17T07:00:54.335Z,1.83
2023-01-17T07:03:25.398Z,1.40
2023-01-17T07:05:54.153Z,1.90
2023-01-17T07:08:22.505Z,1.37
2023-01-17T07:10:50.939Z,1.03
2023-01-17T07:13:19.391Z,1.57
2023-01-17T07:15:47.703Z,1.43
2023-01-17T07:18:20.551Z,2.20
2023-01-17T07:20:50.289Z,1.57
2023-01-17T07:23:19.201Z,1.63
2023-01-17T07:25:52.558Z,1.40
2023-01-17T07:28:20.991Z,2.23
2023-01-17T07:30:49.467Z,2.47
2023-01-17T07:33:17.956Z,2.03
2023-01-17T07:35:46.416Z,1.47
2023-01-17T07:38:16.630Z,2.20
2023-01-17T07:40:44.882Z,1.47
2023-01-17T07:43:14.513Z,1.10
2023-01-17T07:45:43.872Z,1.67
2023-01-17T07:48:12.260Z,2.30
2023-01-17T07:50:40.758Z,2.10
2023-01-17T07:53:09.043Z,1.30
2023-01-17T07:55:38.686Z,1.43
2023-01-17T07:58:06.938Z,1.40
2023-01-17T08:00:35.234Z,1.77
2023-01-17T08:03:03.585Z,1.60
2023-01-17T08:05:31.955Z,1.93
2023-01-17T08:08:00.293Z,1.50
2023-01-17T08:10:28.561Z,1.30
2023-01-17T08:12:58.211Z,1.20
2023-01-17T08:15:26.745Z,1.43
2023-01-17T08:17:55.045Z,1.43
2023-01-17T08:20:23.487Z,2.73
2023-01-17T08:22:54.423Z,1.83
2023-01-17T08:25:23.083Z,1.73
2023-01-17T08:27:51.379Z,3.70
2023-01-17T08:30:21.144Z,2.80
2023-01-17T08:32:49.655Z,3.00
2023-01-17T08:35:19.857Z,2.67
2023-01-17T08:37:48.486Z,3.30
2023-01-17T08:40:17.452Z,3.67
2023-01-17T08:42:45.755Z,4.53
2023-01-17T08:45:15.062Z,3.83
2023-01-17T08:47:44.890Z,5.07
2023-01-17T08:50:13.192Z,5.20
2023-01-17T08:52:41.487Z,3.67
2023-01-17T08:55:11.117Z,2.93
2023-01-17T08:57:39.440Z,4.97
2023-01-17T09:00:08.352Z,4.13
2023-01-17T09:02:36.766Z,3.40
2023-01-17T09:05:06.796Z,3.40
2023-01-17T09:07:35.166Z,5.10
2023-01-17T09:10:03.465Z,3.57
2023-01-17T09:12:34.290Z,3.77
2023-01-17T09:15:02.924Z,2.37
2023-01-17T09:17:31.251Z,3.17
2023-01-17T09:19:59.626Z,1.87
2023-01-17T09:22:30.348Z,1.77
2023-01-17T09:24:58.657Z,2.87
2023-01-17T09:27:26.958Z,2.77
2023-01-17T09:29:55.293Z,1.73
2023-01-17T09:32:23.709Z,1.97
2023-01-17T09:34:52.126Z,3.93
2023-01-17T09:37:20.510Z,9.60
2023-01-17T09:39:50.305Z,3.67
2023-01-17T09:42:22.310Z,2.13
2023-01-17T09:44:52.157Z,1.93
2023-01-17T09:47:26.529Z,2.53
2023-01-17T09:49:58.883Z,3.40
2023-01-17T09:52:28.395Z,2.20
2023-01-17T09:54:58.278Z,2.27
2023-01-17T09:57:34.649Z,1.60
2023-01-17T10:00:07.836Z,1.90
2023-01-17T10:02:45.183Z,1.70
2023-01-17T10:05:19.864Z,1.40
2023-01-17T10:07:55.102Z,1.50
2023-01-17T10:10:28.098Z,1.57
2023-01-17T10:12:59.306Z,3.13
2023-01-17T10:15:37.630Z,1.50
2023-01-17T10:18:21.758Z,1.80
2023-01-17T10:21:03.109Z,2.60
2023-01-17T10:23:38.983Z,1.30
2023-01-17T10:26:10.647Z,1.27
2023-01-17T10:28:42.369Z,2.00
2023-01-17T10:31:14.637Z,2.23
2023-01-17T10:33:45.990Z,1.93
2023-01-17T10:36:16.376Z,2.20
2023-01-17T10:38:47.571Z,3.00
2023-01-17T10:41:21.063Z,1.53
2023-01-17T10:43:53.898Z,1.20
2023-01-17T10:46:24.554Z,2.23
2023-01-17T10:48:54.347Z,2.33
2023-01-17T10:51:29.179Z,1.00
2023-01-17T10:54:05.179Z,1.43
2023-01-17T10:56:36.230Z,1.67
2023-01-17T10:59:13.530Z,1.37
2023-01-17T11:01:42.069Z,1.93
2023-01-17T11:04:15.586Z,1.17
2023-01-17T11:06:57.930Z,1.23
2023-01-17T11:09:38.608Z,1.60
2023-01-17T11:12:17.599Z,1.20
2023-01-17T11:14:53.909Z,1.57
2023-01-17T11:17:22.279Z,1.73
2023-01-17T11:19:51.324Z,1.63
2023-01-17T11:22:19.798Z,1.30
2023-01-17T11:24:52.939Z,1.60
2023-01-17T11:27:30.289Z,1.57
2023-01-17T11:30:06.942Z,1.20
2023-01-17T11:32:35.722Z,1.50
2023-01-17T11:35:08.618Z,1.40
2023-01-17T11:37:37.834Z,2.00
2023-01-17T11:40:09.727Z,1.60
2023-01-17T11:42:39.718Z,1.47
2023-01-17T11:45:27.109Z,1.30
2023-01-17T11:48:16.171Z,1.27
2023-01-17T11:50:47.057Z,1.60
2023-01-17T11:53:20.554Z,1.30
2023-01-17T11:55:56.782Z,1.60
2023-01-17T11:58:26.736Z,1.60
2023-01-17T12:00:59.644Z,1.17
2023-01-17T12:03:34.656Z,1.20
2023-01-17T12:06:05.372Z,1.87
2023-01-17T12:08:39.862Z,2.03
2023-01-17T12:11:13.669Z,1.40
2023-01-17T12:14:02.994Z,1.40
2023-01-17T12:16:49.278Z,1.33
2023-01-17T12:19:28.076Z,1.27
2023-01-17T12:22:02.845Z,1.50
2023-01-17T12:24:38.008Z,1.67
2023-01-17T12:27:10.645Z,1.63
2023-01-17T12:29:48.064Z,1.20
2023-01-17T12:32:32.081Z,1.20
2023-01-17T12:35:02.290Z,1.43
2023-01-17T12:37:34.498Z,1.43
2023-01-17T12:40:05.354Z,1.63
2023-01-17T12:42:36.158Z,1.30
2023-01-17T12:45:06.844Z,1.10
2023-01-17T12:47:39.408Z,1.00
2023-01-17T12:50:10.119Z,1.60
2023-01-17T12:52:46.958Z,1.30
2023-01-17T12:55:18.347Z,1.00
2023-01-17T12:57:48.120Z,1.40
2023-01-17T13:00:19.928Z,1.47
2023-01-17T13:02:52.766Z,2.10
2023-01-17T13:05:24.669Z,1.53
2023-01-17T13:07:55.530Z,1.03
2023-01-17T13:10:27.655Z,1.40
2023-01-17T13:12:57.193Z,1.60
2023-01-17T13:15:27.468Z,1.23
2023-01-17T13:18:01.801Z,1.77
2023-01-17T13:20:32.416Z,1.30
2023-01-17T13:23:03.476Z,1.07
2023-01-17T13:25:37.048Z,2.00
2023-01-17T13:28:10.423Z,2.27
2023-01-17T13:30:46.408Z,1.33
2023-01-17T13:33:25.814Z,1.40
2023-01-17T13:36:00.682Z,1.30
2023-01-17T13:38:54.973Z,1.63
2023-01-17T13:41:44.284Z,2.40
2023-01-17T13:44:25.441Z,1.50
2023-01-17T13:46:55.180Z,1.70
2023-01-17T13:49:33.937Z,1.57
2023-01-17T13:52:10.528Z,1.20
2023-01-17T13:54:45.860Z,1.60
2023-01-17T13:57:36.230Z,1.23
2023-01-17T14:00:23.367Z,2.20
2023-01-17T14:02:52.911Z,1.40
2023-01-17T14:05:43.953Z,1.63
2023-01-17T14:08:15.662Z,1.73
2023-01-17T14:10:45.202Z,0.90
2023-01-17T14:13:30.587Z,1.67
2023-01-17T14:15:59.391Z,1.40
2023-01-17T14:18:33.435Z,1.40
2023-01-17T14:21:08.510Z,1.80
2023-01-17T14:23:54.606Z,1.50
2023-01-17T14:26:25.365Z,1.67
2023-01-17T14:28:54.187Z,1.67
2023-01-17T14:31:23.646Z,1.80
2023-01-17T14:33:52.173Z,1.53
2023-01-17T14:36:26.978Z,1.20
2023-01-17T14:38:55.583Z,1.10
2023-01-17T14:41:24.682Z,1.63
2023-01-17T14:43:53.244Z,1.80
2023-01-17T14:46:24.920Z,1.77
2023-01-17T14:48:54.305Z,1.47
2023-01-17T14:51:25.063Z,1.63
2023-01-17T14:53:55.766Z,3.60
2023-01-17T14:56:24.271Z,3.07
2023-01-17T14:59:05.676Z,2.10
2023-01-17T15:04:28.613Z,3.40
2023-01-17T15:06:58.096Z,2.97
2023-01-17T15:09:27.823Z,3.50
2023-01-17T15:11:57.362Z,4.57
2023-01-17T15:14:28.155Z,2.80
2023-01-17T15:16:56.720Z,1.73
2023-01-17T15:19:25.313Z,3.07
2023-01-17T15:21:55.640Z,2.77
2023-01-17T15:24:25.089Z,3.07
2023-01-17T15:26:53.694Z,1.50
2023-01-17T15:29:25.277Z,1.43
2023-01-17T15:31:55.159Z,3.13
2023-01-17T15:34:27.822Z,2.00
2023-01-17T15:36:58.556Z,2.00
2023-01-17T15:39:30.252Z,1.77
2023-01-17T15:41:59.571Z,2.50
2023-01-17T15:44:42.668Z,2.20
2023-01-17T15:47:29.518Z,1.97
2023-01-17T15:49:58.270Z,2.73
2023-01-17T15:52:28.201Z,2.60
2023-01-17T15:55:00.035Z,1.70
2023-01-17T15:57:29.770Z,2.10
2023-01-17T16:00:00.049Z,3.00
2023-01-17T16:02:46.577Z,3.20
2023-01-17T16:05:34.357Z,2.38
2023-01-17T16:08:21.085Z,5.37
2023-01-17T16:10:54.811Z,3.20
2023-01-17T16:13:23.333Z,2.40
2023-01-17T16:15:51.859Z,2.13
2023-01-17T16:18:23.025Z,2.87
2023-01-17T16:20:53.898Z,3.60
2023-01-17T16:23:22.290Z,2.60
2023-01-17T16:25:53.931Z,2.10
2023-01-17T16:28:22.343Z,1.87
2023-01-17T16:30:54.015Z,1.37
2023-01-17T16:33:22.559Z,2.03
2023-01-17T16:35:51.243Z,1.73
2023-01-17T16:38:20.583Z,2.80
2023-01-17T16:40:49.384Z,4.93
2023-01-17T16:43:19.695Z,3.87
2023-01-17T16:45:49.404Z,3.10
2023-01-17T16:48:19.377Z,3.80
2023-01-17T16:50:50.659Z,3.17
2023-01-17T16:53:22.595Z,2.37
2023-01-17T16:55:53.696Z,2.10
2023-01-17T16:58:23.429Z,2.50
2023-01-17T17:00:51.963Z,2.00
2023-01-17T17:03:21.270Z,2.63
2023-01-17T17:05:56.481Z,3.60
2023-01-17T17:08:25.193Z,1.90
2023-01-17T17:10:53.643Z,2.53
2023-01-17T17:13:23.618Z,2.03
2023-01-17T17:15:52.308Z,2.93
2023-01-17T17:18:21.465Z,2.07
2023-01-17T17:20:49.961Z,4.37
2023-01-17T17:23:18.430Z,3.07
2023-01-17T17:25:46.836Z,2.80
2023-01-17T17:28:15.395Z,2.60
2023-01-17T17:30:45.247Z,2.53
2023-01-17T17:33:13.679Z,3.40
2023-01-17T17:35:42.165Z,1.87
2023-01-17T17:38:11.094Z,3.07
2023-01-17T17:40:39.551Z,3.37
2023-01-17T17:43:08.621Z,1.97
2023-01-17T17:45:37.033Z,2.07
2023-01-17T17:48:07.300Z,2.97
2023-01-17T17:50:35.657Z,2.43
2023-01-17T17:53:04.106Z,2.83
2023-01-17T17:55:32.787Z,3.73
2023-01-17T17:58:02.116Z,2.90
2023-01-17T18:00:30.560Z,3.57
2023-01-17T18:02:58.904Z,2.80
2023-01-17T18:05:28.683Z,4.37
2023-01-17T18:07:57.045Z,3.97
2023-01-17T18:10:25.453Z,3.43
2023-01-17T18:12:53.785Z,3.77
2023-01-17T18:15:24.199Z,3.77
2023-01-17T18:17:52.974Z,3.10
2023-01-17T18:20:21.676Z,3.70
2023-01-17T18:22:51.493Z,2.70
2023-01-17T18:25:19.899Z,3.83
2023-01-17T18:27:48.274Z,3.00
2023-01-17T18:30:16.829Z,3.43
2023-01-17T18:32:45.247Z,3.23
2023-01-17T18:35:13.681Z,2.70
2023-01-17T18:37:42.006Z,2.70
2023-01-17T18:40:13.221Z,2.57
2023-01-17T18:42:41.597Z,4.57
2023-01-17T18:45:10.465Z,2.60
2023-01-17T18:47:38.977Z,2.73
2023-01-17T18:50:07.753Z,3.13
2023-01-17T18:52:37.217Z,2.37
2023-01-17T18:55:05.933Z,4.23
2023-01-17T18:57:35.756Z,6.37
2023-01-17T19:00:04.475Z,3.23
2023-01-17T19:02:32.865Z,4.93
2023-01-17T19:05:01.820Z,3.63
2023-01-17T19:07:32.386Z,4.03
2023-01-17T19:10:00.772Z,4.87
2023-01-17T19:12:29.160Z,2.80
2023-01-17T19:14:58.913Z,4.00
2023-01-17T19:17:27.407Z,3.20
2023-01-17T19:19:57.100Z,2.80
2023-01-17T19:22:25.678Z,4.70
2023-01-17T19:24:54.920Z,2.90
2023-01-17T19:27:23.326Z,4.00
2023-01-17T19:29:51.781Z,3.37
2023-01-17T19:32:21.591Z,4.33
2023-01-17T19:34:49.965Z,3.60
2023-01-17T19:37:18.426Z,2.93
2023-01-17T19:39:46.843Z,3.10
2023-01-17T19:42:15.739Z,2.23
2023-01-17T19:44:44.116Z,4.77
2023-01-17T19:47:12.644Z,2.57
2023-01-17T19:49:44.332Z,4.80
2023-01-17T19:52:12.909Z,2.87
2023-01-17T19:54:41.310Z,3.43
2023-01-17T19:57:09.756Z,3.63
2023-01-17T19:59:38.292Z,4.20
2023-01-17T20:02:06.979Z,4.57
2023-01-17T20:04:35.893Z,5.20
2023-01-17T20:07:05.730Z,3.30
2023-01-17T20:09:35.617Z,2.60
2023-01-17T20:12:04.026Z,2.70
2023-01-17T20:14:32.431Z,4.37
2023-01-17T20:17:00.860Z,6.87
2023-01-17T20:19:29.459Z,4.90
2023-01-17T20:21:57.935Z,4.47
2023-01-17T20:24:27.726Z,5.17
2023-01-17T20:26:58.015Z,5.97
2023-01-17T20:29:26.440Z,2.83
2023-01-17T20:31:54.904Z,3.57
2023-01-17T20:34:25.636Z,3.37
2023-01-17T20:36:57.950Z,3.40
2023-01-17T20:39:27.862Z,4.47
2023-01-17T20:41:56.268Z,4.87
2023-01-17T20:44:24.632Z,4.63
2023-01-17T20:46:53.132Z,4.63
2023-01-17T20:49:21.867Z,7.47
2023-01-17T20:51:50.296Z,7.00
2023-01-17T20:54:19.546Z,5.00
2023-01-17T20:56:49.308Z,4.83
2023-01-17T20:59:18.578Z,3.80
2023-01-17T21:01:47.128Z,4.43
2023-01-17T21:04:15.663Z,5.33
2023-01-17T21:06:44.524Z,4.43
2023-01-17T21:09:14.204Z,3.10
2023-01-17T21:11:42.623Z,4.70
2023-01-17T21:14:12.453Z,6.57
2023-01-17T21:16:40.976Z,5.47
2023-01-17T21:19:12.156Z,5.33
2023-01-17T21:21:40.717Z,3.80
2023-01-17T21:24:09.175Z,6.10
2023-01-17T21:26:38.936Z,4.63
2023-01-17T21:29:07.476Z,6.90
2023-01-17T21:31:39.563Z,4.43
2023-01-17T21:34:08.753Z,3.90
2023-01-17T21:36:37.937Z,4.20
2023-01-17T21:39:07.660Z,4.60
2023-01-17T21:41:37.294Z,5.53
2023-01-17T21:44:07.950Z,4.67
2023-01-17T21:46:39.461Z,5.70
2023-01-17T21:49:10.670Z,3.93
2023-01-17T21:51:57.200Z,4.47
2023-01-17T21:54:50.886Z,6.13
2023-01-17T21:57:38.426Z,4.23
2023-01-17T22:00:08.070Z,3.57
2023-01-17T22:02:37.914Z,3.57
2023-01-17T22:05:06.828Z,5.70
2023-01-17T22:07:35.484Z,2.97
2023-01-17T22:10:03.948Z,3.73
2023-01-17T22:12:32.474Z,7.67
2023-01-17T22:15:00.907Z,7.37
2023-01-17T22:17:30.772Z,4.50
2023-01-17T22:20:00.528Z,6.03
2023-01-17T22:22:29.040Z,6.10
2023-01-17T22:24:57.509Z,3.30
2023-01-17T22:27:26.067Z,4.70
2023-01-17T22:29:54.535Z,2.83
2023-01-17T22:32:23.057Z,4.57
2023-01-17T22:34:51.477Z,4.77
2023-01-17T22:37:21.247Z,6.27
2023-01-17T22:39:49.626Z,4.37
2023-01-17T22:42:18.088Z,6.30
2023-01-17T22:44:47.749Z,4.10
2023-01-17T22:47:16.139Z,4.57
2023-01-17T22:49:44.513Z,4.53
2023-01-17T22:52:13.078Z,6.33
2023-01-17T22:54:42.883Z,4.90
2023-01-17T22:57:11.339Z,6.23
2023-01-17T22:59:39.727Z,5.10
2023-01-17T23:02:08.076Z,6.13
2023-01-17T23:04:36.592Z,2.77
2023-01-17T23:07:05.003Z,6.63
2023-01-17T23:09:33.494Z,5.47
2023-01-17T23:12:03.264Z,6.23
2023-01-17T23:14:52.383Z,7.07
2023-01-17T23:17:38.836Z,3.63
2023-01-17T23:20:08.576Z,5.60
2023-01-17T23:22:37.288Z,5.70
2023-01-17T23:25:07.596Z,6.70
2023-01-17T23:27:56.281Z,4.47
2023-01-17T23:30:26.048Z,6.30
2023-01-17T23:32:55.645Z,4.90
2023-01-17T23:35:26.315Z,3.70
2023-01-17T23:38:12.701Z,6.97
2023-01-17T23:40:41.243Z,6.63
2023-01-17T23:43:23.349Z,5.47
2023-01-17T23:45:52.147Z,6.90
2023-01-17T23:48:20.929Z,7.57
2023-01-17T23:50:49.845Z,4.90
2023-01-17T23:53:22.423Z,4.40
2023-01-17T23:55:51.668Z,5.17
2023-01-17T23:58:21.917Z,4.53
